sensor_id;sensor_type;location;lat;lon;timestamp;P1;durP1;ratioP1;P2;durP2;ratioP2
49998;SDS011;68071;45.062;7.356;2024-01-11T00:01:11;38.97;;;21.55;;
49998;SDS011;68071;45.062;7.356;2024-01-11T00:04:16;46.80;;;24.35;;
49998;SDS011;68071;45.062;7.356;2024-01-11T00:07:29;44.40;;;23.17;;
49998;SDS011;68071;45.062;7.356;2024-01-11T00:10:33;46.80;;;24.90;;
49998;SDS011;68071;45.062;7.356;2024-01-11T00:13:38;49.22;;;23.73;;
49998;SDS011;68071;45.062;7.356;2024-01-11T00:16:42;44.53;;;22.70;;
49998;SDS011;68071;45.062;7.356;2024-01-11T00:19:52;41.28;;;21.13;;
49998;SDS011;68071;45.062;7.356;2024-01-11T00:22:59;40.20;;;19.42;;
49998;SDS011;68071;45.062;7.356;2024-01-11T00:26:03;35.25;;;16.83;;
49998;SDS011;68071;45.062;7.356;2024-01-11T00:29:08;38.88;;;18.55;;
49998;SDS011;68071;45.062;7.356;2024-01-11T00:32:12;37.95;;;18.75;;
49998;SDS011;68071;45.062;7.356;2024-01-11T00:35:16;39.17;;;19.85;;
49998;SDS011;68071;45.062;7.356;2024-01-11T00:38:21;40.42;;;19.52;;
49998;SDS011;68071;45.062;7.356;2024-01-11T00:41:25;34.00;;;18.17;;
49998;SDS011;68071;45.062;7.356;2024-01-11T00:44:29;33.97;;;18.73;;
49998;SDS011;68071;45.062;7.356;2024-01-11T00:47:33;31.20;;;16.88;;
49998;SDS011;68071;45.062;7.356;2024-01-11T00:50:37;35.20;;;20.02;;
49998;SDS011;68071;45.062;7.356;2024-01-11T00:53:41;34.35;;;20.08;;
49998;SDS011;68071;45.062;7.356;2024-01-11T00:56:45;33.17;;;19.25;;
49998;SDS011;68071;45.062;7.356;2024-01-11T00:59:48;32.20;;;17.95;;
49998;SDS011;68071;45.062;7.356;2024-01-11T01:02:53;47.58;;;39.10;;
49998;SDS011;68071;45.062;7.356;2024-01-11T01:05:57;31.47;;;19.27;;
49998;SDS011;68071;45.062;7.356;2024-01-11T01:09:01;29.52;;;17.55;;
49998;SDS011;68071;45.062;7.356;2024-01-11T01:12:06;31.17;;;18.15;;
49998;SDS011;68071;45.062;7.356;2024-01-11T01:15:10;31.42;;;16.55;;
49998;SDS011;68071;45.062;7.356;2024-01-11T01:18:14;37.58;;;18.42;;
49998;SDS011;68071;45.062;7.356;2024-01-11T01:21:18;30.30;;;18.65;;
49998;SDS011;68071;45.062;7.356;2024-01-11T01:24:22;30.60;;;18.00;;
49998;SDS011;68071;45.062;7.356;2024-01-11T01:27:25;35.80;;;19.10;;
49998;SDS011;68071;45.062;7.356;2024-01-11T01:30:29;36.75;;;19.15;;
49998;SDS011;68071;45.062;7.356;2024-01-11T01:33:33;33.80;;;21.08;;
49998;SDS011;68071;45.062;7.356;2024-01-11T01:36:37;36.55;;;20.42;;
49998;SDS011;68071;45.062;7.356;2024-01-11T01:39:41;35.60;;;20.08;;
49998;SDS011;68071;45.062;7.356;2024-01-11T01:42:45;36.75;;;18.20;;
49998;SDS011;68071;45.062;7.356;2024-01-11T01:45:50;36.80;;;20.88;;
49998;SDS011;68071;45.062;7.356;2024-01-11T01:48:54;43.90;;;38.33;;
49998;SDS011;68071;45.062;7.356;2024-01-11T01:52:00;49.22;;;37.45;;
49998;SDS011;68071;45.062;7.356;2024-01-11T01:55:07;34.17;;;18.48;;
49998;SDS011;68071;45.062;7.356;2024-01-11T01:58:14;30.50;;;17.70;;
49998;SDS011;68071;45.062;7.356;2024-01-11T02:01:20;33.20;;;18.98;;
49998;SDS011;68071;45.062;7.356;2024-01-11T02:04:26;31.88;;;18.15;;
49998;SDS011;68071;45.062;7.356;2024-01-11T02:07:31;32.45;;;17.80;;
49998;SDS011;68071;45.062;7.356;2024-01-11T02:10:36;29.87;;;17.53;;
49998;SDS011;68071;45.062;7.356;2024-01-11T02:13:40;35.25;;;19.25;;
49998;SDS011;68071;45.062;7.356;2024-01-11T02:16:45;31.17;;;19.33;;
49998;SDS011;68071;45.062;7.356;2024-01-11T02:19:49;31.15;;;18.75;;
49998;SDS011;68071;45.062;7.356;2024-01-11T02:22:53;32.97;;;17.02;;
49998;SDS011;68071;45.062;7.356;2024-01-11T02:26:02;38.30;;;20.13;;
49998;SDS011;68071;45.062;7.356;2024-01-11T02:29:06;55.03;;;43.08;;
49998;SDS011;68071;45.062;7.356;2024-01-11T02:32:10;41.45;;;22.52;;
49998;SDS011;68071;45.062;7.356;2024-01-11T02:35:18;31.55;;;18.08;;
49998;SDS011;68071;45.062;7.356;2024-01-11T02:38:23;35.88;;;19.63;;
49998;SDS011;68071;45.062;7.356;2024-01-11T02:41:27;32.97;;;20.13;;
49998;SDS011;68071;45.062;7.356;2024-01-11T02:44:35;34.47;;;19.63;;
49998;SDS011;68071;45.062;7.356;2024-01-11T02:47:43;34.45;;;18.52;;
49998;SDS011;68071;45.062;7.356;2024-01-11T02:50:48;32.60;;;19.58;;
49998;SDS011;68071;45.062;7.356;2024-01-11T02:53:52;34.38;;;19.25;;
49998;SDS011;68071;45.062;7.356;2024-01-11T02:57:00;44.30;;;36.53;;
49998;SDS011;68071;45.062;7.356;2024-01-11T03:00:04;30.75;;;17.98;;
49998;SDS011;68071;45.062;7.356;2024-01-11T03:03:09;30.98;;;18.38;;
49998;SDS011;68071;45.062;7.356;2024-01-11T03:06:13;33.40;;;19.58;;
49998;SDS011;68071;45.062;7.356;2024-01-11T03:09:17;32.78;;;19.60;;
49998;SDS011;68071;45.062;7.356;2024-01-11T03:12:21;37.00;;;20.70;;
49998;SDS011;68071;45.062;7.356;2024-01-11T03:15:29;42.40;;;22.60;;
49998;SDS011;68071;45.062;7.356;2024-01-11T03:18:33;36.38;;;21.27;;
49998;SDS011;68071;45.062;7.356;2024-01-11T03:21:40;41.85;;;20.40;;
49998;SDS011;68071;45.062;7.356;2024-01-11T03:24:47;31.73;;;19.95;;
49998;SDS011;68071;45.062;7.356;2024-01-11T03:27:51;38.50;;;20.52;;
49998;SDS011;68071;45.062;7.356;2024-01-11T03:30:56;41.60;;;21.58;;
49998;SDS011;68071;45.062;7.356;2024-01-11T03:34:00;42.55;;;23.92;;
49998;SDS011;68071;45.062;7.356;2024-01-11T03:37:04;39.50;;;19.08;;
49998;SDS011;68071;45.062;7.356;2024-01-11T03:40:08;35.10;;;18.92;;
49998;SDS011;68071;45.062;7.356;2024-01-11T03:43:13;33.03;;;17.45;;
49998;SDS011;68071;45.062;7.356;2024-01-11T03:46:21;35.60;;;20.40;;
49998;SDS011;68071;45.062;7.356;2024-01-11T03:49:25;29.52;;;17.63;;
49998;SDS011;68071;45.062;7.356;2024-01-11T03:52:29;34.25;;;19.08;;
49998;SDS011;68071;45.062;7.356;2024-01-11T03:55:33;35.75;;;20.65;;
49998;SDS011;68071;45.062;7.356;2024-01-11T03:58:37;31.25;;;18.98;;
49998;SDS011;68071;45.062;7.356;2024-01-11T04:01:42;38.10;;;20.42;;
49998;SDS011;68071;45.062;7.356;2024-01-11T04:04:46;32.45;;;18.38;;
49998;SDS011;68071;45.062;7.356;2024-01-11T04:07:50;29.33;;;18.42;;
49998;SDS011;68071;45.062;7.356;2024-01-11T04:10:54;30.75;;;18.80;;
49998;SDS011;68071;45.062;7.356;2024-01-11T04:13:58;31.73;;;19.55;;
49998;SDS011;68071;45.062;7.356;2024-01-11T04:17:02;30.38;;;18.95;;
49998;SDS011;68071;45.062;7.356;2024-01-11T04:20:07;37.40;;;18.38;;
49998;SDS011;68071;45.062;7.356;2024-01-11T04:23:14;31.02;;;19.73;;
49998;SDS011;68071;45.062;7.356;2024-01-11T04:26:18;27.77;;;19.02;;
49998;SDS011;68071;45.062;7.356;2024-01-11T04:29:22;45.90;;;39.28;;
49998;SDS011;68071;45.062;7.356;2024-01-11T04:32:27;30.48;;;19.38;;
49998;SDS011;68071;45.062;7.356;2024-01-11T04:35:31;33.92;;;19.55;;
49998;SDS011;68071;45.062;7.356;2024-01-11T04:38:35;31.83;;;19.50;;
49998;SDS011;68071;45.062;7.356;2024-01-11T04:41:42;34.65;;;20.48;;
49998;SDS011;68071;45.062;7.356;2024-01-11T04:44:46;40.22;;;21.23;;
49998;SDS011;68071;45.062;7.356;2024-01-11T04:47:50;38.58;;;22.45;;
49998;SDS011;68071;45.062;7.356;2024-01-11T04:50:55;38.10;;;20.70;;
49998;SDS011;68071;45.062;7.356;2024-01-11T04:53:59;36.92;;;22.13;;
49998;SDS011;68071;45.062;7.356;2024-01-11T04:57:04;43.40;;;24.20;;
49998;SDS011;68071;45.062;7.356;2024-01-11T05:00:09;36.83;;;20.63;;
49998;SDS011;68071;45.062;7.356;2024-01-11T05:03:13;35.63;;;22.00;;
49998;SDS011;68071;45.062;7.356;2024-01-11T05:06:18;40.92;;;22.92;;
49998;SDS011;68071;45.062;7.356;2024-01-11T05:09:24;36.58;;;19.60;;
49998;SDS011;68071;45.062;7.356;2024-01-11T05:12:28;34.30;;;20.83;;
49998;SDS011;68071;45.062;7.356;2024-01-11T05:15:32;30.40;;;19.70;;
49998;SDS011;68071;45.062;7.356;2024-01-11T05:18:37;36.97;;;20.50;;
49998;SDS011;68071;45.062;7.356;2024-01-11T05:21:41;37.60;;;21.52;;
49998;SDS011;68071;45.062;7.356;2024-01-11T05:24:45;42.95;;;22.55;;
49998;SDS011;68071;45.062;7.356;2024-01-11T05:27:49;36.90;;;21.48;;
49998;SDS011;68071;45.062;7.356;2024-01-11T05:30:53;41.38;;;21.48;;
49998;SDS011;68071;45.062;7.356;2024-01-11T05:33:57;32.35;;;19.88;;
49998;SDS011;68071;45.062;7.356;2024-01-11T05:37:02;38.75;;;21.05;;
49998;SDS011;68071;45.062;7.356;2024-01-11T05:40:06;33.95;;;18.80;;
49998;SDS011;68071;45.062;7.356;2024-01-11T05:43:11;33.38;;;18.65;;
49998;SDS011;68071;45.062;7.356;2024-01-11T05:46:15;44.88;;;37.85;;
49998;SDS011;68071;45.062;7.356;2024-01-11T05:49:19;30.90;;;16.88;;
49998;SDS011;68071;45.062;7.356;2024-01-11T05:52:24;28.15;;;17.30;;
49998;SDS011;68071;45.062;7.356;2024-01-11T05:55:29;30.85;;;17.70;;
49998;SDS011;68071;45.062;7.356;2024-01-11T05:58:43;30.75;;;19.08;;
49998;SDS011;68071;45.062;7.356;2024-01-11T06:01:50;34.83;;;19.88;;
49998;SDS011;68071;45.062;7.356;2024-01-11T06:04:54;30.77;;;17.42;;
49998;SDS011;68071;45.062;7.356;2024-01-11T06:07:59;32.60;;;19.65;;
49998;SDS011;68071;45.062;7.356;2024-01-11T06:11:06;31.88;;;18.20;;
49998;SDS011;68071;45.062;7.356;2024-01-11T06:14:14;28.10;;;15.90;;
49998;SDS011;68071;45.062;7.356;2024-01-11T06:17:19;26.83;;;14.77;;
49998;SDS011;68071;45.062;7.356;2024-01-11T06:20:23;28.10;;;15.60;;
49998;SDS011;68071;45.062;7.356;2024-01-11T06:23:27;26.83;;;13.93;;
49998;SDS011;68071;45.062;7.356;2024-01-11T06:26:31;31.30;;;15.73;;
49998;SDS011;68071;45.062;7.356;2024-01-11T06:29:36;30.83;;;15.88;;
49998;SDS011;68071;45.062;7.356;2024-01-11T06:32:43;32.03;;;15.27;;
49998;SDS011;68071;45.062;7.356;2024-01-11T06:35:47;26.25;;;14.00;;
49998;SDS011;68071;45.062;7.356;2024-01-11T06:38:52;27.92;;;17.48;;
49998;SDS011;68071;45.062;7.356;2024-01-11T06:41:59;32.25;;;18.55;;
49998;SDS011;68071;45.062;7.356;2024-01-11T06:45:03;28.48;;;17.10;;
49998;SDS011;68071;45.062;7.356;2024-01-11T06:48:07;31.05;;;17.55;;
49998;SDS011;68071;45.062;7.356;2024-01-11T06:51:14;33.78;;;19.58;;
49998;SDS011;68071;45.062;7.356;2024-01-11T06:54:19;35.00;;;18.83;;
49998;SDS011;68071;45.062;7.356;2024-01-11T06:57:23;29.98;;;18.25;;
49998;SDS011;68071;45.062;7.356;2024-01-11T07:00:28;31.50;;;17.10;;
49998;SDS011;68071;45.062;7.356;2024-01-11T07:03:32;33.70;;;18.25;;
49998;SDS011;68071;45.062;7.356;2024-01-11T07:06:38;32.15;;;16.77;;
49998;SDS011;68071;45.062;7.356;2024-01-11T07:09:42;33.63;;;16.67;;
49998;SDS011;68071;45.062;7.356;2024-01-11T07:15:52;29.42;;;15.23;;
49998;SDS011;68071;45.062;7.356;2024-01-11T07:18:56;37.55;;;16.08;;
49998;SDS011;68071;45.062;7.356;2024-01-11T07:22:01;31.27;;;16.33;;
49998;SDS011;68071;45.062;7.356;2024-01-11T07:25:05;29.90;;;14.68;;
49998;SDS011;68071;45.062;7.356;2024-01-11T07:28:10;30.30;;;15.93;;
49998;SDS011;68071;45.062;7.356;2024-01-11T07:31:15;28.02;;;15.23;;
49998;SDS011;68071;45.062;7.356;2024-01-11T07:34:19;25.92;;;15.43;;
49998;SDS011;68071;45.062;7.356;2024-01-11T07:37:24;30.83;;;14.07;;
49998;SDS011;68071;45.062;7.356;2024-01-11T07:40:33;32.38;;;14.88;;
49998;SDS011;68071;45.062;7.356;2024-01-11T07:43:38;30.60;;;16.13;;
49998;SDS011;68071;45.062;7.356;2024-01-11T07:46:42;35.22;;;16.05;;
49998;SDS011;68071;45.062;7.356;2024-01-11T07:49:47;28.13;;;15.57;;
49998;SDS011;68071;45.062;7.356;2024-01-11T07:52:51;32.38;;;14.45;;
49998;SDS011;68071;45.062;7.356;2024-01-11T07:56:00;27.67;;;13.65;;
49998;SDS011;68071;45.062;7.356;2024-01-11T07:59:04;32.90;;;14.80;;
49998;SDS011;68071;45.062;7.356;2024-01-11T08:02:09;30.23;;;15.73;;
49998;SDS011;68071;45.062;7.356;2024-01-11T08:05:14;26.55;;;14.32;;
49998;SDS011;68071;45.062;7.356;2024-01-11T08:08:18;21.83;;;12.93;;
49998;SDS011;68071;45.062;7.356;2024-01-11T08:11:26;23.63;;;12.40;;
49998;SDS011;68071;45.062;7.356;2024-01-11T08:14:30;28.02;;;13.05;;
49998;SDS011;68071;45.062;7.356;2024-01-11T08:17:47;25.15;;;13.52;;
49998;SDS011;68071;45.062;7.356;2024-01-11T08:20:57;26.83;;;13.43;;
49998;SDS011;68071;45.062;7.356;2024-01-11T08:24:04;20.75;;;11.20;;
49998;SDS011;68071;45.062;7.356;2024-01-11T08:27:08;23.67;;;11.93;;
49998;SDS011;68071;45.062;7.356;2024-01-11T08:30:13;23.08;;;11.93;;
49998;SDS011;68071;45.062;7.356;2024-01-11T08:33:17;26.60;;;13.45;;
49998;SDS011;68071;45.062;7.356;2024-01-11T08:36:21;31.45;;;16.27;;
49998;SDS011;68071;45.062;7.356;2024-01-11T08:39:25;23.20;;;13.07;;
49998;SDS011;68071;45.062;7.356;2024-01-11T08:42:30;26.20;;;11.95;;
49998;SDS011;68071;45.062;7.356;2024-01-11T08:45:34;19.65;;;11.27;;
49998;SDS011;68071;45.062;7.356;2024-01-11T08:48:38;22.10;;;12.10;;
49998;SDS011;68071;45.062;7.356;2024-01-11T08:51:43;31.02;;;16.35;;
49998;SDS011;68071;45.062;7.356;2024-01-11T08:54:47;30.40;;;14.45;;
49998;SDS011;68071;45.062;7.356;2024-01-11T09:00:58;25.52;;;12.43;;
49998;SDS011;68071;45.062;7.356;2024-01-11T09:04:03;26.55;;;11.93;;
49998;SDS011;68071;45.062;7.356;2024-01-11T09:07:09;27.88;;;14.55;;
49998;SDS011;68071;45.062;7.356;2024-01-11T09:10:12;33.20;;;14.32;;
49998;SDS011;68071;45.062;7.356;2024-01-11T09:13:16;24.35;;;13.73;;
49998;SDS011;68071;45.062;7.356;2024-01-11T09:16:20;25.08;;;12.30;;
49998;SDS011;68071;45.062;7.356;2024-01-11T09:19:24;23.23;;;12.27;;
49998;SDS011;68071;45.062;7.356;2024-01-11T09:22:29;26.52;;;11.55;;
49998;SDS011;68071;45.062;7.356;2024-01-11T09:25:33;23.65;;;10.88;;
49998;SDS011;68071;45.062;7.356;2024-01-11T09:28:36;22.67;;;11.95;;
49998;SDS011;68071;45.062;7.356;2024-01-11T09:31:40;23.65;;;12.32;;
49998;SDS011;68071;45.062;7.356;2024-01-11T09:34:46;20.88;;;10.75;;
49998;SDS011;68071;45.062;7.356;2024-01-11T09:37:50;22.95;;;13.05;;
49998;SDS011;68071;45.062;7.356;2024-01-11T09:41:07;26.40;;;21.27;;
49998;SDS011;68071;45.062;7.356;2024-01-11T09:44:16;26.95;;;21.35;;
49998;SDS011;68071;45.062;7.356;2024-01-11T09:47:21;23.40;;;10.87;;
49998;SDS011;68071;45.062;7.356;2024-01-11T09:50:27;24.77;;;19.33;;
49998;SDS011;68071;45.062;7.356;2024-01-11T09:53:32;22.02;;;17.98;;
49998;SDS011;68071;45.062;7.356;2024-01-11T09:56:37;19.02;;;8.95;;
49998;SDS011;68071;45.062;7.356;2024-01-11T09:59:42;17.80;;;15.07;;
49998;SDS011;68071;45.062;7.356;2024-01-11T10:02:47;13.18;;;7.70;;
49998;SDS011;68071;45.062;7.356;2024-01-11T10:05:51;12.68;;;7.68;;
49998;SDS011;68071;45.062;7.356;2024-01-11T10:09:00;16.65;;;14.45;;
49998;SDS011;68071;45.062;7.356;2024-01-11T10:12:04;16.42;;;13.95;;
49998;SDS011;68071;45.062;7.356;2024-01-11T10:15:09;15.88;;;13.95;;
49998;SDS011;68071;45.062;7.356;2024-01-11T10:18:13;17.98;;;15.40;;
49998;SDS011;68071;45.062;7.356;2024-01-11T10:21:17;15.75;;;13.57;;
49998;SDS011;68071;45.062;7.356;2024-01-11T10:24:22;12.57;;;7.27;;
49998;SDS011;68071;45.062;7.356;2024-01-11T10:27:29;13.50;;;8.25;;
49998;SDS011;68071;45.062;7.356;2024-01-11T10:30:33;26.13;;;17.25;;
49998;SDS011;68071;45.062;7.356;2024-01-11T10:33:39;19.63;;;16.42;;
49998;SDS011;68071;45.062;7.356;2024-01-11T10:36:43;19.25;;;16.50;;
49998;SDS011;68071;45.062;7.356;2024-01-11T10:39:47;20.83;;;16.88;;
49998;SDS011;68071;45.062;7.356;2024-01-11T10:42:54;18.38;;;16.38;;
49998;SDS011;68071;45.062;7.356;2024-01-11T10:46:02;18.10;;;15.55;;
49998;SDS011;68071;45.062;7.356;2024-01-11T10:49:10;17.92;;;14.73;;
49998;SDS011;68071;45.062;7.356;2024-01-11T10:52:20;16.88;;;14.70;;
49998;SDS011;68071;45.062;7.356;2024-01-11T10:55:33;17.48;;;14.57;;
49998;SDS011;68071;45.062;7.356;2024-01-11T10:58:41;18.05;;;15.77;;
49998;SDS011;68071;45.062;7.356;2024-01-11T11:01:46;19.80;;;15.63;;
49998;SDS011;68071;45.062;7.356;2024-01-11T11:04:51;17.08;;;14.90;;
49998;SDS011;68071;45.062;7.356;2024-01-11T11:07:58;18.00;;;15.35;;
49998;SDS011;68071;45.062;7.356;2024-01-11T11:11:05;16.42;;;14.52;;
49998;SDS011;68071;45.062;7.356;2024-01-11T11:14:09;18.00;;;15.85;;
49998;SDS011;68071;45.062;7.356;2024-01-11T11:17:17;18.80;;;16.05;;
49998;SDS011;68071;45.062;7.356;2024-01-11T11:20:21;18.30;;;16.20;;
49998;SDS011;68071;45.062;7.356;2024-01-11T11:23:25;18.42;;;14.77;;
49998;SDS011;68071;45.062;7.356;2024-01-11T11:26:31;17.30;;;14.63;;
49998;SDS011;68071;45.062;7.356;2024-01-11T11:29:36;16.75;;;14.02;;
49998;SDS011;68071;45.062;7.356;2024-01-11T11:32:43;17.42;;;15.00;;
49998;SDS011;68071;45.062;7.356;2024-01-11T11:35:48;18.70;;;16.25;;
49998;SDS011;68071;45.062;7.356;2024-01-11T11:38:56;19.95;;;16.83;;
49998;SDS011;68071;45.062;7.356;2024-01-11T11:42:04;19.52;;;16.33;;
49998;SDS011;68071;45.062;7.356;2024-01-11T11:45:09;18.55;;;16.45;;
49998;SDS011;68071;45.062;7.356;2024-01-11T11:51:34;21.23;;;17.38;;
49998;SDS011;68071;45.062;7.356;2024-01-11T11:54:38;20.17;;;17.73;;
49998;SDS011;68071;45.062;7.356;2024-01-11T11:57:42;20.85;;;17.88;;
49998;SDS011;68071;45.062;7.356;2024-01-11T12:00:47;17.00;;;8.67;;
49998;SDS011;68071;45.062;7.356;2024-01-11T12:03:52;22.25;;;18.38;;
49998;SDS011;68071;45.062;7.356;2024-01-11T12:06:57;22.98;;;19.10;;
49998;SDS011;68071;45.062;7.356;2024-01-11T12:10:01;21.67;;;19.02;;
49998;SDS011;68071;45.062;7.356;2024-01-11T12:13:05;22.55;;;19.08;;
49998;SDS011;68071;45.062;7.356;2024-01-11T12:16:10;20.75;;;18.55;;
49998;SDS011;68071;45.062;7.356;2024-01-11T12:19:14;23.42;;;18.65;;
49998;SDS011;68071;45.062;7.356;2024-01-11T12:22:20;21.95;;;19.23;;
49998;SDS011;68071;45.062;7.356;2024-01-11T12:25:25;22.40;;;18.23;;
49998;SDS011;68071;45.062;7.356;2024-01-11T12:28:30;22.87;;;20.37;;
49998;SDS011;68071;45.062;7.356;2024-01-11T12:31:35;24.48;;;20.30;;
49998;SDS011;68071;45.062;7.356;2024-01-11T12:34:39;25.67;;;20.73;;
49998;SDS011;68071;45.062;7.356;2024-01-11T12:37:53;25.52;;;21.98;;
49998;SDS011;68071;45.062;7.356;2024-01-11T12:40:58;27.13;;;22.00;;
49998;SDS011;68071;45.062;7.356;2024-01-11T12:44:02;25.58;;;21.48;;
49998;SDS011;68071;45.062;7.356;2024-01-11T12:47:07;25.50;;;20.85;;
49998;SDS011;68071;45.062;7.356;2024-01-11T12:50:11;33.50;;;27.60;;
49998;SDS011;68071;45.062;7.356;2024-01-11T12:53:18;30.70;;;25.02;;
49998;SDS011;68071;45.062;7.356;2024-01-11T12:56:22;30.65;;;24.95;;
49998;SDS011;68071;45.062;7.356;2024-01-11T12:59:28;33.65;;;26.60;;
49998;SDS011;68071;45.062;7.356;2024-01-11T13:02:31;30.02;;;24.35;;
49998;SDS011;68071;45.062;7.356;2024-01-11T13:05:36;31.83;;;27.77;;
49998;SDS011;68071;45.062;7.356;2024-01-11T13:08:39;35.13;;;29.58;;
49998;SDS011;68071;45.062;7.356;2024-01-11T13:11:44;33.73;;;28.57;;
49998;SDS011;68071;45.062;7.356;2024-01-11T13:14:48;33.65;;;28.50;;
49998;SDS011;68071;45.062;7.356;2024-01-11T13:20:59;33.75;;;29.05;;
49998;SDS011;68071;45.062;7.356;2024-01-11T13:24:03;36.65;;;29.20;;
49998;SDS011;68071;45.062;7.356;2024-01-11T13:27:07;33.15;;;26.58;;
49998;SDS011;68071;45.062;7.356;2024-01-11T13:30:11;34.03;;;27.70;;
49998;SDS011;68071;45.062;7.356;2024-01-11T13:33:17;35.78;;;29.50;;
49998;SDS011;68071;45.062;7.356;2024-01-11T13:36:22;34.70;;;28.83;;
49998;SDS011;68071;45.062;7.356;2024-01-11T13:42:30;33.08;;;28.00;;
49998;SDS011;68071;45.062;7.356;2024-01-11T13:45:35;32.15;;;26.65;;
49998;SDS011;68071;45.062;7.356;2024-01-11T13:48:39;33.70;;;29.07;;
49998;SDS011;68071;45.062;7.356;2024-01-11T13:51:43;37.13;;;28.75;;
49998;SDS011;68071;45.062;7.356;2024-01-11T13:54:48;34.33;;;28.42;;
49998;SDS011;68071;45.062;7.356;2024-01-11T13:57:52;34.88;;;28.83;;
49998;SDS011;68071;45.062;7.356;2024-01-11T14:00:56;34.25;;;28.75;;
49998;SDS011;68071;45.062;7.356;2024-01-11T14:04:00;34.35;;;28.60;;
49998;SDS011;68071;45.062;7.356;2024-01-11T14:07:05;36.10;;;30.33;;
49998;SDS011;68071;45.062;7.356;2024-01-11T14:10:09;32.97;;;28.40;;
49998;SDS011;68071;45.062;7.356;2024-01-11T14:13:15;32.53;;;27.92;;
49998;SDS011;68071;45.062;7.356;2024-01-11T14:16:19;33.40;;;27.95;;
49998;SDS011;68071;45.062;7.356;2024-01-11T14:19:22;32.28;;;28.25;;
49998;SDS011;68071;45.062;7.356;2024-01-11T14:22:26;35.33;;;28.48;;
49998;SDS011;68071;45.062;7.356;2024-01-11T14:25:30;35.45;;;28.05;;
49998;SDS011;68071;45.062;7.356;2024-01-11T14:28:34;30.85;;;25.70;;
49998;SDS011;68071;45.062;7.356;2024-01-11T14:31:38;34.05;;;28.45;;
49998;SDS011;68071;45.062;7.356;2024-01-11T14:34:43;34.88;;;28.40;;
49998;SDS011;68071;45.062;7.356;2024-01-11T14:37:49;33.35;;;28.65;;
49998;SDS011;68071;45.062;7.356;2024-01-11T14:40:56;34.67;;;27.58;;
49998;SDS011;68071;45.062;7.356;2024-01-11T14:44:00;34.05;;;29.33;;
49998;SDS011;68071;45.062;7.356;2024-01-11T14:47:04;34.25;;;28.55;;
49998;SDS011;68071;45.062;7.356;2024-01-11T14:50:08;37.08;;;30.98;;
49998;SDS011;68071;45.062;7.356;2024-01-11T14:53:12;35.53;;;29.67;;
49998;SDS011;68071;45.062;7.356;2024-01-11T14:56:17;34.07;;;29.10;;
49998;SDS011;68071;45.062;7.356;2024-01-11T14:59:21;31.70;;;27.52;;
49998;SDS011;68071;45.062;7.356;2024-01-11T15:02:25;37.75;;;31.48;;
49998;SDS011;68071;45.062;7.356;2024-01-11T15:05:30;40.67;;;33.15;;
49998;SDS011;68071;45.062;7.356;2024-01-11T15:08:35;38.13;;;31.60;;
49998;SDS011;68071;45.062;7.356;2024-01-11T15:11:39;37.65;;;33.00;;
49998;SDS011;68071;45.062;7.356;2024-01-11T15:14:43;27.25;;;17.65;;
49998;SDS011;68071;45.062;7.356;2024-01-11T15:17:48;47.45;;;36.85;;
49998;SDS011;68071;45.062;7.356;2024-01-11T15:23:57;30.90;;;18.33;;
49998;SDS011;68071;45.062;7.356;2024-01-11T15:27:03;40.30;;;20.17;;
49998;SDS011;68071;45.062;7.356;2024-01-11T15:30:08;61.58;;;31.27;;
49998;SDS011;68071;45.062;7.356;2024-01-11T15:33:17;34.63;;;19.52;;
49998;SDS011;68071;45.062;7.356;2024-01-11T15:36:21;39.95;;;21.27;;
49998;SDS011;68071;45.062;7.356;2024-01-11T15:39:25;40.20;;;22.02;;
49998;SDS011;68071;45.062;7.356;2024-01-11T15:42:31;44.70;;;23.92;;
49998;SDS011;68071;45.062;7.356;2024-01-11T15:45:34;86.90;;;40.93;;
49998;SDS011;68071;45.062;7.356;2024-01-11T15:48:39;54.05;;;26.98;;
49998;SDS011;68071;45.062;7.356;2024-01-11T15:51:44;76.28;;;39.00;;
49998;SDS011;68071;45.062;7.356;2024-01-11T15:54:47;50.25;;;28.92;;
49998;SDS011;68071;45.062;7.356;2024-01-11T15:57:51;75.78;;;39.03;;
49998;SDS011;68071;45.062;7.356;2024-01-11T16:00:58;53.00;;;34.10;;
49998;SDS011;68071;45.062;7.356;2024-01-11T16:04:02;44.65;;;25.23;;
49998;SDS011;68071;45.062;7.356;2024-01-11T16:07:08;45.53;;;30.23;;
49998;SDS011;68071;45.062;7.356;2024-01-11T16:10:15;44.65;;;26.55;;
49998;SDS011;68071;45.062;7.356;2024-01-11T16:13:19;43.85;;;24.25;;
49998;SDS011;68071;45.062;7.356;2024-01-11T16:16:23;49.80;;;27.67;;
49998;SDS011;68071;45.062;7.356;2024-01-11T16:19:27;51.78;;;29.80;;
49998;SDS011;68071;45.062;7.356;2024-01-11T16:22:31;50.50;;;31.90;;
49998;SDS011;68071;45.062;7.356;2024-01-11T16:25:35;54.17;;;34.03;;
49998;SDS011;68071;45.062;7.356;2024-01-11T16:28:39;59.10;;;30.05;;
49998;SDS011;68071;45.062;7.356;2024-01-11T16:31:43;52.92;;;28.08;;
49998;SDS011;68071;45.062;7.356;2024-01-11T16:34:46;51.47;;;26.73;;
49998;SDS011;68071;45.062;7.356;2024-01-11T16:37:51;47.47;;;23.23;;
49998;SDS011;68071;45.062;7.356;2024-01-11T16:40:55;57.47;;;28.30;;
49998;SDS011;68071;45.062;7.356;2024-01-11T16:43:59;42.97;;;24.52;;
49998;SDS011;68071;45.062;7.356;2024-01-11T16:47:03;46.13;;;25.83;;
49998;SDS011;68071;45.062;7.356;2024-01-11T16:50:08;46.42;;;25.83;;
49998;SDS011;68071;45.062;7.356;2024-01-11T16:53:13;25.88;;;13.60;;
49998;SDS011;68071;45.062;7.356;2024-01-11T16:56:16;54.20;;;25.00;;
49998;SDS011;68071;45.062;7.356;2024-01-11T16:59:21;46.35;;;26.20;;
49998;SDS011;68071;45.062;7.356;2024-01-11T17:02:26;42.15;;;21.67;;
49998;SDS011;68071;45.062;7.356;2024-01-11T17:05:35;48.90;;;26.77;;
49998;SDS011;68071;45.062;7.356;2024-01-11T17:08:39;35.20;;;24.98;;
49998;SDS011;68071;45.062;7.356;2024-01-11T17:11:43;34.25;;;19.52;;
49998;SDS011;68071;45.062;7.356;2024-01-11T17:14:47;21.60;;;11.50;;
49998;SDS011;68071;45.062;7.356;2024-01-11T17:17:51;49.03;;;23.02;;
49998;SDS011;68071;45.062;7.356;2024-01-11T17:20:55;39.22;;;21.38;;
49998;SDS011;68071;45.062;7.356;2024-01-11T17:24:00;29.20;;;17.60;;
49998;SDS011;68071;45.062;7.356;2024-01-11T17:27:05;36.88;;;20.17;;
49998;SDS011;68071;45.062;7.356;2024-01-11T17:30:11;53.40;;;26.52;;
49998;SDS011;68071;45.062;7.356;2024-01-11T17:33:16;44.88;;;25.00;;
49998;SDS011;68071;45.062;7.356;2024-01-11T17:36:19;49.58;;;28.48;;
49998;SDS011;68071;45.062;7.356;2024-01-11T17:39:24;42.47;;;21.88;;
49998;SDS011;68071;45.062;7.356;2024-01-11T17:42:29;41.67;;;23.48;;
49998;SDS011;68071;45.062;7.356;2024-01-11T17:45:34;38.97;;;22.23;;
49998;SDS011;68071;45.062;7.356;2024-01-11T17:48:40;37.83;;;20.30;;
49998;SDS011;68071;45.062;7.356;2024-01-11T17:51:48;39.15;;;22.77;;
49998;SDS011;68071;45.062;7.356;2024-01-11T17:54:59;44.95;;;24.40;;
49998;SDS011;68071;45.062;7.356;2024-01-11T17:58:03;36.03;;;19.48;;
49998;SDS011;68071;45.062;7.356;2024-01-11T18:01:08;41.28;;;23.13;;
49998;SDS011;68071;45.062;7.356;2024-01-11T18:04:11;20.63;;;14.30;;
49998;SDS011;68071;45.062;7.356;2024-01-11T18:07:16;11.85;;;9.07;;
49998;SDS011;68071;45.062;7.356;2024-01-11T18:10:21;35.08;;;21.15;;
49998;SDS011;68071;45.062;7.356;2024-01-11T18:13:25;23.80;;;15.73;;
49998;SDS011;68071;45.062;7.356;2024-01-11T18:16:29;27.98;;;17.25;;
49998;SDS011;68071;45.062;7.356;2024-01-11T18:19:36;28.88;;;16.25;;